createdAt,value
2019-03-06T00:00:49.499Z,62.70
2019-03-06T00:02:26.476Z,62.70
2019-03-06T00:04:01.863Z,62.60
2019-03-06T00:05:37.230Z,62.50
2019-03-06T00:07:12.598Z,62.50
2019-03-06T00:08:47.954Z,62.60
2019-03-06T00:10:32.179Z,62.60
2019-03-06T00:12:07.557Z,62.60
2019-03-06T00:13:42.914Z,62.80
2019-03-06T00:15:18.287Z,62.70
2019-03-06T00:16:53.673Z,62.80
2019-03-06T00:18:29.039Z,62.70
2019-03-06T00:20:06.151Z,62.70
2019-03-06T00:21:41.600Z,62.70
2019-03-06T00:23:16.967Z,63.40
2019-03-06T00:24:52.324Z,62.60
2019-03-06T00:26:27.685Z,62.70
2019-03-06T00:28:03.084Z,62.80
2019-03-06T00:29:38.518Z,62.90
2019-03-06T00:31:13.887Z,62.90
2019-03-06T00:32:49.262Z,62.90
2019-03-06T00:34:24.628Z,62.80
2019-03-06T00:36:01.863Z,62.70
2019-03-06T00:37:37.243Z,62.80
2019-03-06T00:39:12.776Z,62.70
2019-03-06T00:40:49.790Z,62.60
2019-03-06T00:42:25.166Z,62.50
2019-03-06T00:44:00.536Z,62.50
2019-03-06T00:45:35.904Z,62.40
2019-03-06T00:47:11.275Z,62.40
2019-03-06T00:48:46.721Z,62.50
2019-03-06T00:50:22.790Z,62.50
2019-03-06T00:51:58.174Z,62.60
2019-03-06T00:53:33.546Z,62.60
2019-03-06T00:55:12.010Z,62.50
2019-03-06T00:56:47.372Z,62.60
2019-03-06T00:58:25.055Z,62.60
2019-03-06T01:00:00.396Z,62.60
2019-03-06T01:01:35.705Z,62.60
2019-03-06T01:03:11.496Z,62.60
2019-03-06T01:04:46.874Z,62.70
2019-03-06T01:06:22.237Z,62.60
2019-03-06T01:07:57.694Z,62.70
2019-03-06T01:09:33.066Z,62.70
2019-03-06T01:11:08.433Z,62.60
2019-03-06T01:12:44.351Z,62.60
2019-03-06T01:14:19.730Z,62.80
2019-03-06T01:15:55.091Z,62.80
2019-03-06T01:17:30.467Z,62.70
2019-03-06T01:19:06.182Z,62.80
2019-03-06T01:20:41.552Z,62.90
2019-03-06T01:22:16.915Z,62.80
2019-03-06T01:23:52.612Z,63.20
2019-03-06T01:25:27.980Z,63.20
2019-03-06T01:27:03.717Z,63.30
2019-03-06T01:28:39.083Z,63.30
2019-03-06T01:30:26.903Z,63.30
2019-03-06T01:32:02.581Z,63.40
2019-03-06T01:33:39.590Z,63.50
2019-03-06T01:35:34.657Z,63.50
2019-03-06T01:37:11.731Z,63.70
2019-03-06T01:39:06.759Z,63.70
2019-03-06T01:41:00.135Z,63.70
2019-03-06T01:42:40.056Z,63.70
2019-03-06T01:44:17.061Z,63.80
2019-03-06T01:45:52.442Z,64.10
2019-03-06T01:47:27.808Z,64.00
2019-03-06T01:49:03.174Z,64.20
2019-03-06T01:50:38.561Z,64.30
2019-03-06T01:52:14.894Z,64.20
2019-03-06T01:53:50.265Z,64.10
2019-03-06T01:55:25.649Z,64.10
2019-03-06T01:57:01.019Z,64.30
2019-03-06T01:58:36.660Z,64.10
2019-03-06T02:00:16.608Z,64.20
2019-03-06T02:01:51.979Z,64.20
2019-03-06T02:03:27.356Z,65.00
2019-03-06T02:05:02.729Z,64.30
2019-03-06T02:06:38.225Z,64.20
2019-03-06T02:08:16.671Z,64.30
2019-03-06T02:09:52.062Z,64.50
2019-03-06T02:11:27.419Z,64.70
2019-03-06T02:13:02.848Z,64.70
2019-03-06T02:14:38.466Z,64.60
2019-03-06T02:16:14.810Z,64.60
2019-03-06T02:17:50.348Z,64.60
2019-03-06T02:19:25.704Z,64.70
2019-03-06T02:21:01.077Z,64.30
2019-03-06T02:22:36.443Z,64.30
2019-03-06T02:24:11.811Z,64.30
2019-03-06T02:25:47.471Z,64.20
2019-03-06T02:27:23.094Z,64.30
2019-03-06T02:28:58.760Z,64.30
2019-03-06T02:30:34.141Z,64.20
2019-03-06T02:32:09.510Z,64.20
2019-03-06T02:33:45.183Z,64.20
2019-03-06T02:35:20.920Z,64.10
2019-03-06T02:36:56.280Z,64.00
2019-03-06T02:38:31.688Z,64.10
2019-03-06T02:40:09.859Z,64.20
2019-03-06T02:41:45.222Z,64.00
2019-03-06T02:43:20.583Z,63.90
2019-03-06T02:44:55.964Z,63.90
2019-03-06T02:46:31.331Z,64.30
2019-03-06T02:48:07.812Z,64.30
2019-03-06T02:49:44.118Z,64.30
2019-03-06T02:51:19.559Z,64.40
2019-03-06T02:52:55.264Z,64.60
2019-03-06T02:54:30.881Z,64.70
2019-03-06T02:56:06.529Z,64.70
2019-03-06T02:57:43.786Z,64.70
2019-03-06T02:59:20.802Z,64.60
2019-03-06T03:01:10.962Z,64.50
2019-03-06T03:02:47.973Z,64.50
2019-03-06T03:04:25.004Z,64.60
2019-03-06T03:06:07.846Z,64.70
2019-03-06T03:07:43.252Z,64.70
2019-03-06T03:09:20.293Z,64.70
2019-03-06T03:10:55.674Z,64.50
2019-03-06T03:12:31.034Z,64.40
2019-03-06T03:14:06.650Z,64.30
2019-03-06T03:15:42.032Z,64.40
2019-03-06T03:17:17.399Z,64.40
2019-03-06T03:18:53.038Z,64.30
2019-03-06T03:20:28.403Z,64.30
2019-03-06T03:22:03.775Z,64.30
2019-03-06T03:23:39.128Z,64.30
2019-03-06T03:25:14.492Z,64.30
2019-03-06T03:26:50.143Z,64.30
2019-03-06T03:28:25.507Z,64.30
2019-03-06T03:30:00.946Z,64.30
2019-03-06T03:31:36.322Z,64.30
2019-03-06T03:33:11.689Z,64.30
2019-03-06T03:34:47.328Z,64.30
2019-03-06T03:36:22.709Z,64.30
2019-03-06T03:37:58.064Z,64.20
2019-03-06T03:39:33.425Z,64.20
2019-03-06T03:41:08.826Z,64.10
2019-03-06T03:42:44.725Z,64.00
2019-03-06T03:44:20.068Z,64.00
2019-03-06T03:45:56.423Z,64.00
2019-03-06T03:47:31.794Z,63.90
2019-03-06T03:49:07.408Z,64.00
2019-03-06T03:50:42.773Z,63.90
2019-03-06T03:52:18.442Z,64.00
2019-03-06T03:53:53.812Z,64.00
2019-03-06T03:55:29.190Z,64.00
2019-03-06T03:57:04.572Z,64.00
2019-03-06T03:58:39.926Z,63.80
2019-03-06T04:00:19.220Z,63.70
2019-03-06T04:01:54.594Z,63.80
2019-03-06T04:03:30.611Z,63.70
2019-03-06T04:05:09.189Z,63.80
2019-03-06T04:06:44.629Z,63.70
2019-03-06T04:08:19.988Z,63.60
2019-03-06T04:09:55.637Z,63.70
2019-03-06T04:11:31.001Z,63.70
2019-03-06T04:13:06.375Z,63.70
2019-03-06T04:14:42.234Z,63.80
2019-03-06T04:16:17.598Z,63.60
2019-03-06T04:17:53.152Z,63.70
2019-03-06T04:19:28.515Z,63.80
2019-03-06T04:21:03.877Z,63.90
2019-03-06T04:22:40.325Z,63.90
2019-03-06T04:24:15.687Z,63.90
2019-03-06T04:25:51.228Z,63.80
2019-03-06T04:27:26.596Z,63.80
2019-03-06T04:29:02.041Z,63.80
2019-03-06T04:30:38.379Z,63.80
2019-03-06T04:32:14.109Z,63.70
2019-03-06T04:33:49.464Z,63.70
2019-03-06T04:35:24.826Z,63.60
2019-03-06T04:37:00.230Z,63.60
2019-03-06T04:38:35.587Z,63.50
2019-03-06T04:40:14.135Z,63.50
2019-03-06T04:41:49.491Z,63.40
2019-03-06T04:43:24.863Z,63.40
2019-03-06T04:45:00.606Z,63.50
2019-03-06T04:46:35.974Z,63.40
2019-03-06T04:48:11.345Z,63.30
2019-03-06T04:49:52.556Z,63.20
2019-03-06T04:51:23.781Z,63.30
2019-03-06T04:53:00.294Z,63.30
2019-03-06T04:54:35.662Z,63.20
2019-03-06T04:56:11.029Z,63.20
2019-03-06T04:57:46.406Z,63.30
2019-03-06T04:59:21.766Z,63.40
2019-03-06T05:00:58.113Z,63.40
2019-03-06T05:02:33.486Z,63.40
2019-03-06T05:04:09.815Z,63.50
2019-03-06T05:05:45.189Z,63.60
2019-03-06T05:07:20.733Z,63.60
2019-03-06T05:08:56.426Z,63.70
2019-03-06T05:10:31.793Z,63.70
2019-03-06T05:12:07.332Z,63.70
2019-03-06T05:13:42.713Z,63.60
2019-03-06T05:15:19.080Z,63.70
2019-03-06T05:17:02.015Z,63.70
2019-03-06T05:18:40.513Z,63.70
2019-03-06T05:20:16.202Z,63.60
2019-03-06T05:21:51.815Z,63.60
2019-03-06T05:23:27.474Z,63.50
2019-03-06T05:25:02.841Z,63.50
2019-03-06T05:26:38.208Z,63.60
2019-03-06T05:28:13.587Z,63.60
2019-03-06T05:29:48.936Z,63.60
2019-03-06T05:31:24.481Z,63.60
2019-03-06T05:33:09.982Z,63.70
2019-03-06T05:34:45.420Z,63.50
2019-03-06T05:36:43.557Z,63.70
2019-03-06T05:38:54.452Z,63.90
2019-03-06T05:40:29.816Z,64.00
2019-03-06T05:42:05.186Z,63.90
2019-03-06T05:43:40.555Z,64.00
2019-03-06T05:45:15.968Z,64.10
2019-03-06T05:46:51.282Z,64.10
2019-03-06T05:48:26.652Z,64.20
2019-03-06T05:50:02.023Z,64.40
2019-03-06T05:51:37.666Z,64.40
2019-03-06T05:53:13.301Z,64.60
2019-03-06T05:54:48.650Z,64.70
2019-03-06T05:56:24.015Z,64.70
2019-03-06T05:57:59.369Z,64.60
2019-03-06T05:59:35.813Z,64.60
2019-03-06T06:01:11.168Z,64.60
2019-03-06T06:02:46.598Z,64.70
2019-03-06T06:04:21.969Z,64.60
2019-03-06T06:05:57.338Z,64.60
2019-03-06T06:07:32.698Z,64.60
2019-03-06T06:09:08.514Z,64.70
2019-03-06T06:10:43.875Z,64.70
2019-03-06T06:12:19.239Z,64.80
2019-03-06T06:13:54.622Z,64.90
2019-03-06T06:15:29.976Z,64.90
2019-03-06T06:17:05.416Z,64.90
2019-03-06T06:18:41.585Z,64.90
2019-03-06T06:20:17.086Z,64.60
2019-03-06T06:21:54.091Z,65.80
2019-03-06T06:23:49.113Z,65.20
2019-03-06T06:25:24.483Z,65.30
2019-03-06T06:26:59.840Z,65.40
2019-03-06T06:28:35.214Z,65.50
2019-03-06T06:30:14.143Z,65.70
2019-03-06T06:31:49.511Z,65.80
2019-03-06T06:33:24.952Z,65.90
2019-03-06T06:35:00.407Z,66.00
2019-03-06T06:36:35.765Z,66.10
2019-03-06T06:38:11.778Z,66.20
2019-03-06T06:39:47.401Z,66.20
2019-03-06T06:41:22.772Z,66.10
2019-03-06T06:42:58.127Z,65.90
2019-03-06T06:44:33.497Z,66.00
2019-03-06T06:46:08.866Z,65.80
2019-03-06T06:48:14.604Z,65.70
2019-03-06T06:49:50.933Z,65.50
2019-03-06T06:51:59.999Z,65.40
2019-03-06T06:53:48.648Z,65.20
2019-03-06T06:55:31.355Z,65.00
2019-03-06T06:57:40.237Z,65.00
2019-03-06T06:59:34.637Z,64.80
2019-03-06T07:01:27.817Z,64.80
2019-03-06T07:03:27.415Z,64.80
2019-03-06T07:05:15.969Z,64.80
2019-03-06T07:06:52.972Z,64.90
2019-03-06T07:08:33.984Z,64.90
2019-03-06T07:10:19.935Z,65.80
2019-03-06T07:11:56.942Z,65.10
2019-03-06T07:13:49.086Z,65.00
2019-03-06T07:15:35.029Z,64.80
2019-03-06T07:17:15.073Z,64.60
2019-03-06T07:18:52.076Z,64.00
2019-03-06T07:20:29.093Z,63.70
2019-03-06T07:22:06.166Z,63.20
2019-03-06T07:23:46.091Z,62.90
2019-03-06T07:25:35.150Z,62.50
2019-03-06T07:27:12.165Z,61.50
2019-03-06T07:28:49.183Z,61.60
2019-03-06T07:30:32.151Z,61.40
2019-03-06T07:32:24.122Z,60.90
2019-03-06T07:34:06.838Z,60.30
2019-03-06T07:35:55.878Z,59.80
2019-03-06T07:37:38.726Z,59.70
2019-03-06T07:39:21.206Z,59.60
2019-03-06T07:41:16.881Z,58.80
2019-03-06T07:42:56.850Z,58.50
2019-03-06T07:44:49.890Z,58.00
2019-03-06T07:46:35.728Z,57.30
2019-03-06T07:48:12.754Z,56.90
2019-03-06T07:50:06.441Z,56.60
2019-03-06T07:51:52.074Z,56.30
2019-03-06T07:54:00.078Z,55.20
2019-03-06T07:55:37.102Z,54.50
2019-03-06T07:57:15.078Z,54.50
2019-03-06T07:58:56.143Z,54.10
2019-03-06T08:00:31.525Z,54.00
2019-03-06T08:02:54.763Z,53.70
2019-03-06T08:04:30.145Z,53.50
2019-03-06T08:06:05.615Z,53.40
2019-03-06T08:07:41.012Z,52.80
2019-03-06T08:09:19.798Z,52.10
2019-03-06T08:10:55.368Z,52.10
2019-03-06T08:12:34.925Z,51.70
2019-03-06T08:14:22.216Z,51.10
2019-03-06T08:16:02.636Z,51.10
2019-03-06T08:17:42.489Z,50.70
2019-03-06T08:19:35.990Z,50.70
2019-03-06T08:21:21.835Z,50.70
2019-03-06T08:23:01.490Z,50.40
2019-03-06T08:24:38.508Z,50.50
2019-03-06T08:26:13.897Z,49.90
2019-03-06T08:27:49.278Z,50.00
2019-03-06T08:29:24.657Z,50.00
2019-03-06T08:31:13.762Z,49.80
2019-03-06T08:32:49.139Z,48.90
2019-03-06T08:34:24.538Z,48.90
2019-03-06T08:36:00.237Z,48.60
2019-03-06T08:37:35.619Z,48.70
2019-03-06T08:39:21.902Z,48.80
2019-03-06T08:41:04.559Z,48.80
2019-03-06T08:42:34.618Z,48.60
2019-03-06T08:44:09.992Z,49.10
2019-03-06T08:46:03.267Z,48.50
2019-03-06T08:47:40.291Z,48.20
2019-03-06T08:49:36.890Z,47.80
2019-03-06T08:51:14.431Z,47.50
2019-03-06T08:52:55.243Z,47.40
2019-03-06T08:54:35.794Z,47.20
2019-03-06T08:56:22.198Z,46.90
2019-03-06T08:57:59.293Z,46.60
2019-03-06T08:59:45.295Z,46.70
2019-03-06T09:01:45.956Z,46.50
2019-03-06T09:03:25.867Z,46.70
2019-03-06T09:05:05.339Z,46.10
2019-03-06T09:06:49.756Z,46.20
2019-03-06T09:08:36.365Z,46.40
2019-03-06T09:10:22.732Z,46.80
2019-03-06T09:12:12.016Z,47.00
2019-03-06T09:14:04.272Z,47.00
2019-03-06T09:15:43.718Z,46.80
2019-03-06T09:17:37.324Z,46.70
2019-03-06T09:19:16.974Z,47.50
2019-03-06T09:21:03.204Z,47.10
2019-03-06T09:22:42.123Z,47.00
2019-03-06T09:24:35.398Z,47.10
2019-03-06T09:26:15.176Z,46.40
2019-03-06T09:27:58.221Z,46.40
2019-03-06T09:29:35.608Z,46.40
2019-03-06T09:31:28.847Z,46.20
2019-03-06T09:33:11.506Z,45.70
2019-03-06T09:35:00.582Z,45.70
2019-03-06T09:36:53.579Z,45.70
2019-03-06T09:38:33.252Z,45.70
2019-03-06T09:40:14.754Z,45.70
2019-03-06T09:41:55.676Z,45.60
2019-03-06T09:43:42.088Z,45.50
2019-03-06T09:45:19.096Z,45.70
2019-03-06T09:47:12.372Z,45.60
2019-03-06T09:49:11.115Z,45.80
2019-03-06T09:50:48.419Z,46.00
2019-03-06T09:52:37.424Z,45.60
2019-03-06T09:54:14.450Z,45.30
2019-03-06T09:56:03.348Z,45.00
2019-03-06T09:57:43.068Z,44.80
2019-03-06T09:59:20.262Z,44.90
2019-03-06T10:00:57.274Z,44.60
2019-03-06T10:02:34.303Z,44.50
2019-03-06T10:04:20.346Z,44.60
2019-03-06T10:05:59.296Z,44.10
2019-03-06T10:07:52.183Z,43.60
2019-03-06T10:09:29.280Z,43.00
2019-03-06T10:11:06.362Z,42.90
2019-03-06T10:12:49.550Z,42.60
2019-03-06T10:14:26.575Z,42.90
2019-03-06T10:16:03.601Z,42.90
2019-03-06T10:17:46.607Z,43.20
2019-03-06T10:19:26.561Z,42.90
2019-03-06T10:21:01.976Z,42.90
2019-03-06T10:22:37.349Z,42.70
2019-03-06T10:24:12.724Z,42.60
2019-03-06T10:25:48.101Z,42.40
2019-03-06T10:27:23.492Z,42.10
2019-03-06T10:28:58.874Z,41.80
2019-03-06T10:30:34.449Z,42.00
2019-03-06T10:32:09.842Z,41.80
2019-03-06T10:33:46.293Z,41.90
2019-03-06T10:35:22.697Z,42.10
2019-03-06T10:36:58.269Z,41.60
2019-03-06T10:38:33.653Z,40.90
2019-03-06T10:40:18.555Z,40.90
2019-03-06T10:41:55.013Z,41.00
2019-03-06T10:43:31.475Z,40.90
2019-03-06T10:45:09.260Z,40.70
2019-03-06T10:46:44.645Z,40.90
2019-03-06T10:48:20.031Z,41.10
2019-03-06T10:49:55.405Z,40.90
2019-03-06T10:51:31.252Z,40.60
2019-03-06T10:53:06.727Z,40.50
2019-03-06T10:54:44.998Z,40.60
2019-03-06T10:56:19.202Z,40.40
2019-03-06T10:57:54.585Z,41.10
2019-03-06T10:59:31.109Z,40.40
2019-03-06T11:01:07.100Z,40.30
2019-03-06T11:02:42.490Z,40.20
2019-03-06T11:04:22.168Z,40.30
2019-03-06T11:05:57.542Z,40.30
2019-03-06T11:07:32.920Z,40.20
2019-03-06T11:09:10.916Z,40.10
2019-03-06T11:10:46.285Z,40.40
2019-03-06T11:12:21.683Z,40.60
2019-03-06T11:14:05.795Z,40.80
2019-03-06T11:15:35.249Z,40.50
2019-03-06T11:17:10.800Z,40.60
2019-03-06T11:18:47.521Z,40.60
2019-03-06T11:20:32.871Z,40.40
2019-03-06T11:22:08.876Z,40.30
2019-03-06T11:23:44.254Z,40.40
2019-03-06T11:25:21.758Z,40.50
2019-03-06T11:26:57.454Z,40.70
2019-03-06T11:28:32.916Z,40.60
2019-03-06T11:30:27.729Z,40.30
2019-03-06T11:32:03.360Z,40.20
2019-03-06T11:33:39.040Z,40.20
2019-03-06T11:35:19.295Z,40.30
2019-03-06T11:36:55.668Z,40.50
2019-03-06T11:38:31.430Z,40.90
2019-03-06T11:40:11.412Z,40.70
2019-03-06T11:41:47.117Z,40.40
2019-03-06T11:43:22.858Z,40.20
2019-03-06T11:44:58.231Z,40.80
2019-03-06T11:46:33.616Z,40.30
2019-03-06T11:48:09.513Z,40.40
2019-03-06T11:49:44.931Z,40.00
2019-03-06T11:51:20.276Z,40.00
2019-03-06T11:52:56.434Z,40.20
2019-03-06T11:54:31.881Z,40.60
2019-03-06T11:56:08.171Z,40.50
2019-03-06T11:57:44.703Z,40.20
2019-03-06T11:59:20.540Z,40.40
2019-03-06T12:00:57.313Z,40.50
2019-03-06T12:02:32.909Z,40.70
2019-03-06T12:04:08.249Z,40.60
2019-03-06T12:05:43.932Z,40.60
2019-03-06T12:07:19.311Z,40.70
2019-03-06T12:08:54.698Z,40.80
2019-03-06T12:10:31.405Z,40.80
2019-03-06T12:12:07.281Z,41.30
2019-03-06T12:13:42.705Z,41.90
2019-03-06T12:15:18.327Z,41.50
2019-03-06T12:16:53.704Z,41.60
2019-03-06T12:18:29.095Z,41.80
2019-03-06T12:20:08.379Z,42.00
2019-03-06T12:21:43.928Z,42.10
2019-03-06T12:23:19.391Z,42.40
2019-03-06T12:24:54.758Z,42.70
2019-03-06T12:26:30.207Z,42.80
2019-03-06T12:28:08.600Z,42.80
2019-03-06T12:29:43.982Z,42.70
2019-03-06T12:31:19.532Z,43.00
2019-03-06T12:32:55.377Z,43.00
2019-03-06T12:34:30.756Z,43.10
2019-03-06T12:36:06.440Z,43.10
2019-03-06T12:37:46.933Z,43.30
2019-03-06T12:39:18.929Z,43.40
2019-03-06T12:40:54.312Z,43.50
2019-03-06T12:42:29.682Z,43.60
2019-03-06T12:44:10.452Z,43.70
2019-03-06T12:46:04.271Z,44.40
2019-03-06T12:47:39.649Z,43.90
2019-03-06T12:49:15.140Z,44.10
2019-03-06T12:50:55.163Z,44.10
2019-03-06T12:52:28.717Z,44.20
2019-03-06T12:54:06.128Z,44.30
2019-03-06T12:55:41.513Z,44.40
2019-03-06T12:57:16.881Z,44.50
2019-03-06T12:58:52.265Z,44.60
2019-03-06T13:00:27.909Z,44.90
2019-03-06T13:02:03.467Z,44.70
2019-03-06T13:03:39.822Z,44.70
2019-03-06T13:05:15.272Z,44.60
2019-03-06T13:06:50.659Z,44.40
2019-03-06T13:08:26.119Z,44.30
2019-03-06T13:10:01.568Z,44.20
2019-03-06T13:11:36.944Z,44.30
2019-03-06T13:13:12.413Z,44.40
2019-03-06T13:14:47.908Z,44.50
2019-03-06T13:16:23.676Z,44.60
2019-03-06T13:17:59.987Z,44.50
2019-03-06T13:19:35.375Z,44.70
2019-03-06T13:21:11.310Z,44.70
2019-03-06T13:22:46.689Z,44.70
2019-03-06T13:24:22.080Z,44.50
2019-03-06T13:25:57.463Z,44.40
2019-03-06T13:27:32.879Z,44.30
2019-03-06T13:29:09.315Z,44.30
2019-03-06T13:30:44.688Z,44.30
2019-03-06T13:32:21.704Z,44.40
2019-03-06T13:34:01.393Z,44.30
2019-03-06T13:35:38.666Z,44.10
2019-03-06T13:37:14.042Z,44.30
2019-03-06T13:38:54.978Z,44.50
2019-03-06T13:40:26.793Z,44.50
2019-03-06T13:42:02.181Z,44.50
2019-03-06T13:43:37.564Z,44.50
2019-03-06T13:45:15.486Z,44.50
2019-03-06T13:46:50.874Z,44.60
2019-03-06T13:48:26.250Z,44.60
2019-03-06T13:50:01.742Z,44.30
2019-03-06T13:51:38.184Z,44.30
2019-03-06T13:53:20.097Z,44.20
2019-03-06T13:54:50.655Z,44.10
2019-03-06T13:56:26.040Z,44.00
2019-03-06T13:58:02.549Z,44.00
2019-03-06T13:59:38.024Z,44.00
2019-03-06T14:01:13.549Z,44.00
2019-03-06T14:02:51.610Z,44.00
2019-03-06T14:04:26.999Z,44.00
2019-03-06T14:06:03.353Z,43.90
2019-03-06T14:07:38.983Z,43.90
2019-03-06T14:09:15.073Z,44.00
2019-03-06T14:10:50.796Z,44.10
2019-03-06T14:12:26.495Z,43.90
2019-03-06T14:14:03.079Z,43.80
2019-03-06T14:15:38.458Z,43.90
2019-03-06T14:17:13.854Z,44.30
2019-03-06T14:18:49.521Z,44.00
2019-03-06T14:20:25.172Z,44.10
2019-03-06T14:22:00.865Z,44.10
2019-03-06T14:23:37.630Z,44.10
2019-03-06T14:25:15.864Z,44.00
2019-03-06T14:26:51.411Z,43.90
2019-03-06T14:28:26.804Z,43.70
2019-03-06T14:30:02.197Z,43.80
2019-03-06T14:31:37.577Z,43.60
2019-03-06T14:33:12.955Z,43.40
2019-03-06T14:34:48.342Z,43.50
2019-03-06T14:36:23.720Z,43.30
2019-03-06T14:37:59.162Z,43.30
2019-03-06T14:39:34.553Z,43.50
2019-03-06T14:41:10.306Z,43.40
2019-03-06T14:42:45.681Z,43.20
2019-03-06T14:44:21.076Z,43.10
2019-03-06T14:45:57.415Z,43.10
2019-03-06T14:47:32.869Z,43.00
2019-03-06T14:49:08.337Z,42.90
2019-03-06T14:50:43.703Z,42.80
2019-03-06T14:52:19.084Z,42.70
2019-03-06T14:53:54.465Z,42.80
2019-03-06T14:55:30.015Z,42.60
2019-03-06T14:57:05.827Z,42.60
2019-03-06T14:58:41.204Z,42.70
2019-03-06T15:00:21.383Z,42.60
2019-03-06T15:01:56.756Z,42.70
2019-03-06T15:03:32.410Z,42.70
2019-03-06T15:05:07.866Z,42.70
2019-03-06T15:06:43.241Z,42.60
2019-03-06T15:08:18.619Z,42.60
2019-03-06T15:09:54.282Z,42.70
2019-03-06T15:11:33.087Z,42.80
2019-03-06T15:13:06.878Z,42.90
2019-03-06T15:14:42.518Z,42.90
2019-03-06T15:16:17.970Z,43.00
2019-03-06T15:17:53.355Z,42.90
2019-03-06T15:19:29.707Z,42.80
2019-03-06T15:21:05.088Z,42.80
2019-03-06T15:22:40.736Z,42.70
2019-03-06T15:24:16.441Z,42.60
2019-03-06T15:25:51.819Z,42.70
2019-03-06T15:27:27.202Z,43.50
2019-03-06T15:29:02.574Z,42.80
2019-03-06T15:30:37.958Z,42.70
2019-03-06T15:32:13.407Z,42.70
2019-03-06T15:33:48.789Z,42.50
2019-03-06T15:35:24.177Z,42.40
2019-03-06T15:36:59.726Z,42.40
2019-03-06T15:38:35.108Z,42.40
2019-03-06T15:40:24.765Z,42.90
2019-03-06T15:42:01.693Z,42.40
2019-03-06T15:43:38.586Z,42.20
2019-03-06T15:45:16.543Z,42.30
2019-03-06T15:46:51.987Z,42.20
2019-03-06T15:48:27.375Z,42.50
2019-03-06T15:50:02.755Z,42.00
2019-03-06T15:51:38.371Z,42.00
2019-03-06T15:53:24.122Z,42.00
2019-03-06T15:54:53.066Z,42.00
2019-03-06T15:56:28.611Z,42.10
2019-03-06T15:58:04.727Z,42.00
2019-03-06T15:59:40.419Z,41.60
2019-03-06T16:01:15.941Z,41.60
2019-03-06T16:02:51.635Z,41.60
2019-03-06T16:04:27.008Z,41.50
2019-03-06T16:06:02.463Z,41.40
2019-03-06T16:07:38.794Z,41.40
2019-03-06T16:09:14.954Z,41.20
2019-03-06T16:10:50.339Z,41.20
2019-03-06T16:12:25.783Z,41.30
2019-03-06T16:14:01.158Z,41.30
2019-03-06T16:15:36.962Z,41.20
2019-03-06T16:17:12.338Z,41.10
2019-03-06T16:18:47.722Z,41.20
2019-03-06T16:20:24.050Z,41.10
2019-03-06T16:21:59.423Z,41.30
2019-03-06T16:23:35.075Z,41.20
2019-03-06T16:25:11.316Z,41.20
2019-03-06T16:26:46.687Z,41.40
2019-03-06T16:28:22.069Z,41.50
2019-03-06T16:29:57.463Z,41.40
2019-03-06T16:31:32.841Z,41.40
2019-03-06T16:33:08.480Z,41.40
2019-03-06T16:34:43.852Z,41.40
2019-03-06T16:36:19.254Z,41.50
2019-03-06T16:37:54.687Z,41.60
2019-03-06T16:39:30.059Z,41.70
2019-03-06T16:41:05.445Z,41.70
2019-03-06T16:42:41.015Z,41.70
2019-03-06T16:44:16.459Z,41.90
2019-03-06T16:45:51.851Z,42.00
2019-03-06T16:47:27.393Z,42.00
2019-03-06T16:49:03.306Z,42.40
2019-03-06T16:50:38.933Z,42.10
2019-03-06T16:52:14.666Z,42.10
2019-03-06T16:53:50.697Z,42.20
2019-03-06T16:55:27.602Z,42.20
2019-03-06T16:57:02.979Z,42.30
2019-03-06T16:58:38.370Z,42.40
2019-03-06T17:00:27.748Z,42.50
2019-03-06T17:02:03.469Z,42.60
2019-03-06T17:03:39.190Z,42.70
2019-03-06T17:05:18.622Z,42.80
2019-03-06T17:06:54.969Z,42.80
2019-03-06T17:08:30.450Z,42.90
2019-03-06T17:10:06.621Z,43.00
2019-03-06T17:11:42.356Z,43.00
2019-03-06T17:13:17.801Z,43.20
2019-03-06T17:14:53.446Z,43.20
2019-03-06T17:16:30.359Z,43.30
2019-03-06T17:18:06.333Z,43.30
2019-03-06T17:19:42.574Z,43.40
2019-03-06T17:21:17.957Z,43.50
2019-03-06T17:22:53.564Z,43.60
2019-03-06T17:24:29.289Z,43.60
2019-03-06T17:26:05.717Z,43.80
2019-03-06T17:27:41.252Z,43.80
2019-03-06T17:29:16.697Z,43.90
2019-03-06T17:30:52.090Z,43.90
2019-03-06T17:32:27.539Z,44.00
2019-03-06T17:34:02.922Z,44.10
2019-03-06T17:35:39.204Z,44.00
2019-03-06T17:37:14.721Z,44.10
2019-03-06T17:38:50.104Z,44.20
2019-03-06T17:40:26.085Z,44.20
2019-03-06T17:42:01.464Z,44.30
2019-03-06T17:43:37.197Z,44.30
2019-03-06T17:45:13.964Z,44.30
2019-03-06T17:46:49.601Z,44.40
2019-03-06T17:48:25.246Z,44.40
2019-03-06T17:50:00.621Z,44.50
2019-03-06T17:51:36.005Z,44.60
2019-03-06T17:53:11.389Z,44.60
2019-03-06T17:54:46.942Z,44.70
2019-03-06T17:56:22.323Z,44.80
2019-03-06T17:57:59.092Z,44.80
2019-03-06T17:59:34.561Z,44.80
2019-03-06T18:01:11.657Z,44.80
2019-03-06T18:02:47.101Z,44.90
2019-03-06T18:04:22.478Z,45.00
2019-03-06T18:05:57.861Z,44.90
2019-03-06T18:07:33.311Z,45.00
2019-03-06T18:09:08.769Z,45.00
2019-03-06T18:10:45.902Z,45.20
2019-03-06T18:12:21.358Z,45.20
2019-03-06T18:13:56.744Z,45.30
2019-03-06T18:15:32.125Z,45.40
2019-03-06T18:17:07.517Z,45.40
2019-03-06T18:18:42.887Z,45.50
2019-03-06T18:20:19.246Z,45.60
2019-03-06T18:21:54.643Z,45.70
2019-03-06T18:23:30.014Z,45.80
2019-03-06T18:25:10.884Z,46.00
2019-03-06T18:26:46.340Z,46.10
2019-03-06T18:28:21.889Z,46.30
2019-03-06T18:29:57.272Z,46.40
2019-03-06T18:31:32.723Z,46.50
2019-03-06T18:33:08.099Z,46.60
2019-03-06T18:34:43.481Z,46.80
2019-03-06T18:36:18.879Z,46.80
2019-03-06T18:37:54.337Z,47.50
2019-03-06T18:39:29.716Z,46.80
2019-03-06T18:41:05.106Z,46.90
2019-03-06T18:42:40.474Z,46.90
2019-03-06T18:44:16.670Z,47.00
2019-03-06T18:45:52.057Z,47.20
2019-03-06T18:47:27.431Z,47.10
2019-03-06T18:49:03.232Z,47.10
2019-03-06T18:50:38.611Z,47.30
2019-03-06T18:52:14.001Z,47.30
2019-03-06T18:53:49.376Z,47.40
2019-03-06T18:55:24.767Z,47.40
2019-03-06T18:57:00.155Z,47.50
2019-03-06T18:58:35.530Z,47.50
2019-03-06T19:00:18.170Z,47.60
2019-03-06T19:01:53.624Z,47.60
2019-03-06T19:03:29.075Z,48.40
2019-03-06T19:05:07.572Z,47.80
2019-03-06T19:06:43.029Z,47.90
2019-03-06T19:08:18.725Z,47.90
2019-03-06T19:09:54.105Z,48.00
2019-03-06T19:11:29.500Z,48.20
2019-03-06T19:13:04.947Z,48.20
2019-03-06T19:14:42.391Z,48.30
2019-03-06T19:16:18.697Z,48.50
2019-03-06T19:17:54.528Z,48.50
2019-03-06T19:19:30.247Z,48.60
2019-03-06T19:21:05.772Z,48.70
2019-03-06T19:22:41.227Z,48.80
2019-03-06T19:24:16.927Z,49.00
2019-03-06T19:25:52.315Z,49.00
2019-03-06T19:27:27.705Z,49.10
2019-03-06T19:29:03.076Z,49.90
2019-03-06T19:30:38.459Z,49.30
2019-03-06T19:32:13.854Z,49.30
2019-03-06T19:33:49.897Z,49.40
2019-03-06T19:35:29.594Z,49.50
2019-03-06T19:37:05.378Z,49.60
2019-03-06T19:38:40.752Z,49.60
2019-03-06T19:40:18.333Z,49.70
2019-03-06T19:41:55.167Z,49.80
2019-03-06T19:43:30.544Z,49.90
2019-03-06T19:45:13.612Z,50.00
2019-03-06T19:46:49.859Z,50.70
2019-03-06T19:48:25.242Z,50.10
2019-03-06T19:50:00.619Z,50.10
2019-03-06T19:51:36.005Z,50.20
2019-03-06T19:53:11.456Z,50.30
2019-03-06T19:54:48.365Z,50.40
2019-03-06T19:56:23.931Z,50.50
2019-03-06T19:58:11.381Z,50.50
2019-03-06T19:59:46.762Z,50.60
2019-03-06T20:01:22.468Z,50.60
2019-03-06T20:02:58.722Z,50.60
2019-03-06T20:04:34.290Z,50.70
2019-03-06T20:06:09.756Z,50.80
2019-03-06T20:07:47.060Z,50.80
2019-03-06T20:09:27.231Z,51.00
2019-03-06T20:11:02.613Z,51.00
2019-03-06T20:12:38.137Z,51.10
2019-03-06T20:14:13.516Z,51.10
2019-03-06T20:15:48.895Z,51.20
2019-03-06T20:17:24.290Z,51.80
2019-03-06T20:18:59.665Z,51.30
2019-03-06T20:20:35.111Z,51.30
2019-03-06T20:22:10.491Z,51.30
2019-03-06T20:23:45.868Z,51.30
2019-03-06T20:25:22.746Z,51.20
2019-03-06T20:26:58.236Z,51.40
2019-03-06T20:28:33.611Z,51.30
2019-03-06T20:30:22.147Z,51.30
2019-03-06T20:31:57.543Z,51.70
2019-03-06T20:33:34.176Z,51.70
2019-03-06T20:35:10.118Z,51.70
2019-03-06T20:36:45.735Z,51.80
2019-03-06T20:38:21.156Z,51.70
2019-03-06T20:39:56.550Z,51.70
2019-03-06T20:41:31.929Z,51.80
2019-03-06T20:43:07.657Z,51.70
2019-03-06T20:44:43.032Z,51.90
2019-03-06T20:46:18.591Z,51.70
2019-03-06T20:47:53.984Z,51.80
2019-03-06T20:49:29.620Z,51.70
2019-03-06T20:51:05.009Z,51.80
2019-03-06T20:52:40.404Z,51.70
2019-03-06T20:54:15.810Z,51.70
2019-03-06T20:55:51.186Z,51.70